Terminal Aerodrome Forecast
Issued by NWS Jackson, KY

Home | Current Version | Previous Version | Text Only | Print | Product List | Glossary On
Versions: 1 2 3 4 5 6 7 8 9 10 11 12 13 14 15 16 17 18 19 20 21 22
226
FTUS43 KJKL 140520
TAFJKL
TAF
KJKL 140520Z 1406/1506 07003KT P6SM BKN120
     FM141900 10004KT 5SM -SN OVC030
     FM142200 11005KT 1SM -SN SCT007 OVC010=

USA.gov is the U.S. government's official web portal to all federal, state and local government web resources and services.